createdAt,value
2019-03-11T00:01:23.220Z,4.90
2019-03-11T00:03:49.936Z,4.72
2019-03-11T00:06:16.544Z,4.66
2019-03-11T00:08:43.297Z,4.58
2019-03-11T00:11:10.002Z,4.53
2019-03-11T00:13:36.678Z,4.34
2019-03-11T00:16:03.370Z,4.63
2019-03-11T00:18:30.130Z,4.75
2019-03-11T00:20:56.775Z,4.86
2019-03-11T00:23:23.565Z,4.95
2019-03-11T00:25:50.361Z,4.75
2019-03-11T00:28:19.875Z,4.88
2019-03-11T00:30:46.418Z,4.92
2019-03-11T00:34:09.716Z,4.90
2019-03-11T00:36:36.539Z,4.67
2019-03-11T00:39:05.392Z,4.47
2019-03-11T00:41:32.662Z,4.39
2019-03-11T00:45:14.231Z,4.14
2019-03-11T00:47:40.921Z,4.09
2019-03-11T00:50:10.766Z,3.74
2019-03-11T00:52:37.597Z,3.77
2019-03-11T00:55:08.928Z,3.24
2019-03-11T00:57:36.695Z,3.15
2019-03-11T01:00:08.974Z,3.03
2019-03-11T01:02:36.762Z,2.89
2019-03-11T01:05:59.560Z,2.88
2019-03-11T01:08:28.173Z,2.88
2019-03-11T01:10:54.737Z,2.82
2019-03-11T01:13:21.419Z,2.47
2019-03-11T01:15:48.087Z,2.47
2019-03-11T01:18:14.959Z,2.19
2019-03-11T01:20:41.649Z,2.33
2019-03-11T01:23:08.312Z,2.39
2019-03-11T01:25:35.045Z,2.38
2019-03-11T01:28:01.683Z,2.33
2019-03-11T01:30:28.324Z,2.26
2019-03-11T01:32:54.925Z,2.08
2019-03-11T01:35:21.497Z,2.36
2019-03-11T01:37:48.070Z,1.96
2019-03-11T01:40:17.027Z,2.11
2019-03-11T01:42:44.019Z,2.09
2019-03-11T01:45:14.389Z,2.13
2019-03-11T01:47:41.159Z,2.20
2019-03-11T01:50:10.573Z,2.17
2019-03-11T01:52:37.183Z,2.06
2019-03-11T01:55:07.567Z,2.06
2019-03-11T01:57:34.235Z,1.94
2019-03-11T02:00:03.980Z,2.08
2019-03-11T02:02:32.453Z,2.06
2019-03-11T02:04:59.027Z,2.11
2019-03-11T02:07:25.656Z,2.07
2019-03-11T02:09:52.329Z,2.10
2019-03-11T02:12:18.895Z,2.00
2019-03-11T02:14:45.545Z,2.05
2019-03-11T02:17:12.196Z,1.96
2019-03-11T02:19:38.771Z,1.91
2019-03-11T02:22:05.328Z,1.79
2019-03-11T02:24:31.983Z,1.84
2019-03-11T02:26:58.548Z,1.85
2019-03-11T02:29:25.210Z,1.96
2019-03-11T02:31:51.822Z,1.91
2019-03-11T02:34:18.511Z,1.96
2019-03-11T02:36:45.189Z,1.90
2019-03-11T02:39:12.502Z,1.71
2019-03-11T02:41:39.242Z,1.75
2019-03-11T02:44:06.033Z,1.63
2019-03-11T02:46:32.693Z,1.71
2019-03-11T02:48:59.307Z,1.77
2019-03-11T02:51:26.075Z,1.86
2019-03-11T02:53:52.663Z,1.86
2019-03-11T02:56:19.316Z,1.81
2019-03-11T02:58:46.206Z,1.71
2019-03-11T03:01:15.152Z,1.82
2019-03-11T03:03:43.928Z,1.83
2019-03-11T03:06:12.504Z,1.85
2019-03-11T03:08:39.033Z,1.95
2019-03-11T03:11:05.733Z,1.85
2019-03-11T03:13:32.404Z,1.86
2019-03-11T03:15:58.967Z,2.06
2019-03-11T03:18:25.595Z,2.04
2019-03-11T03:20:52.259Z,1.99
2019-03-11T03:23:18.911Z,2.04
2019-03-11T03:25:45.503Z,2.03
2019-03-11T03:28:12.267Z,2.16
2019-03-11T03:30:39.213Z,2.20
2019-03-11T03:33:05.778Z,2.39
2019-03-11T03:35:32.624Z,2.12
2019-03-11T03:37:59.323Z,2.10
2019-03-11T03:40:26.014Z,2.14
2019-03-11T03:42:53.275Z,2.22
2019-03-11T03:45:25.259Z,2.09
2019-03-11T03:47:52.225Z,2.32
2019-03-11T03:50:21.869Z,2.30
2019-03-11T03:52:48.738Z,2.36
2019-03-11T03:55:15.812Z,2.39
2019-03-11T03:57:42.577Z,2.41
2019-03-11T04:00:11.081Z,2.35
2019-03-11T04:02:37.788Z,2.38
2019-03-11T04:05:09.138Z,2.50
2019-03-11T04:07:35.776Z,2.40
2019-03-11T04:10:07.823Z,2.34
2019-03-11T04:12:34.612Z,2.55
2019-03-11T04:15:01.634Z,2.48
2019-03-11T04:17:28.622Z,2.39
2019-03-11T04:19:55.298Z,2.52
2019-03-11T04:22:21.954Z,2.48
2019-03-11T04:24:48.878Z,2.48
2019-03-11T04:27:16.345Z,2.61
2019-03-11T04:29:43.030Z,2.71
2019-03-11T04:32:09.773Z,2.64
2019-03-11T04:34:36.419Z,2.76
2019-03-11T04:37:04.383Z,2.59
2019-03-11T04:39:30.999Z,2.67
2019-03-11T04:41:57.766Z,2.67
2019-03-11T04:44:24.501Z,2.68
2019-03-11T04:46:51.120Z,2.53
2019-03-11T04:49:17.673Z,2.68
2019-03-11T04:51:44.286Z,2.72
2019-03-11T04:54:10.904Z,2.55
2019-03-11T04:56:37.682Z,2.69
2019-03-11T04:59:09.202Z,2.87
2019-03-11T05:01:35.783Z,2.67
2019-03-11T05:04:02.541Z,2.55
2019-03-11T05:06:29.105Z,2.66
2019-03-11T05:08:55.661Z,2.57
2019-03-11T05:11:22.325Z,2.49
2019-03-11T05:13:48.939Z,2.44
2019-03-11T05:16:15.548Z,2.43
2019-03-11T05:18:42.288Z,2.53
2019-03-11T05:21:09.042Z,2.66
2019-03-11T05:23:35.599Z,2.64
2019-03-11T05:26:02.340Z,2.38
2019-03-11T05:28:28.973Z,2.50
2019-03-11T05:30:55.547Z,2.33
2019-03-11T05:33:22.134Z,2.57
2019-03-11T05:35:48.928Z,2.43
2019-03-11T05:38:15.589Z,2.58
2019-03-11T05:40:43.263Z,2.48
2019-03-11T05:43:09.809Z,2.44
2019-03-11T05:45:36.394Z,2.55
2019-03-11T05:48:03.261Z,2.55
2019-03-11T05:50:29.862Z,2.56
2019-03-11T05:52:56.518Z,2.64
2019-03-11T05:55:23.177Z,2.71
2019-03-11T05:57:49.751Z,2.71
2019-03-11T06:00:20.818Z,2.68
2019-03-11T06:03:43.975Z,2.73
2019-03-11T06:06:10.694Z,2.68
2019-03-11T06:08:37.372Z,2.70
2019-03-11T06:11:04.252Z,2.54
2019-03-11T06:13:35.877Z,2.74
2019-03-11T06:15:59.541Z,2.80
2019-03-11T06:18:28.154Z,2.78
2019-03-11T06:20:56.746Z,2.73
2019-03-11T06:23:23.374Z,2.83
2019-03-11T06:25:49.985Z,2.72
2019-03-11T06:28:16.557Z,2.79
2019-03-11T06:30:43.202Z,2.97
2019-03-11T06:33:09.771Z,2.83
2019-03-11T06:35:36.373Z,2.93
2019-03-11T06:38:03.166Z,2.86
2019-03-11T06:40:29.839Z,3.10
2019-03-11T06:42:56.409Z,3.15
2019-03-11T06:45:23.097Z,2.99
2019-03-11T06:47:49.833Z,2.98
2019-03-11T06:50:16.474Z,2.89
2019-03-11T06:52:43.319Z,3.11
2019-03-11T06:55:11.923Z,3.19
2019-03-11T06:57:38.780Z,3.23
2019-03-11T07:00:11.078Z,3.36
2019-03-11T07:02:37.735Z,3.28
2019-03-11T07:05:04.823Z,3.21
2019-03-11T07:07:31.407Z,3.13
2019-03-11T07:09:58.203Z,3.37
2019-03-11T07:12:24.867Z,3.25
2019-03-11T07:14:51.495Z,3.53
2019-03-11T07:17:18.142Z,3.42
2019-03-11T07:19:44.843Z,3.51
2019-03-11T07:22:11.410Z,3.43
2019-03-11T07:24:38.351Z,3.56
2019-03-11T07:27:04.944Z,3.43
2019-03-11T07:29:31.514Z,3.39
2019-03-11T07:31:58.096Z,3.32
2019-03-11T07:34:24.712Z,3.34
2019-03-11T07:36:51.297Z,3.59
2019-03-11T07:39:17.883Z,3.53
2019-03-11T07:41:44.457Z,3.68
2019-03-11T07:44:11.273Z,3.67
2019-03-11T07:46:38.143Z,3.58
2019-03-11T07:49:04.872Z,3.60
2019-03-11T07:51:31.654Z,3.51
2019-03-11T07:53:58.271Z,3.35
2019-03-11T07:56:24.811Z,3.69
2019-03-11T07:58:51.384Z,3.90
2019-03-11T08:01:18.108Z,3.79
2019-03-11T08:03:44.856Z,4.13
2019-03-11T08:06:18.597Z,4.10
2019-03-11T08:08:40.262Z,3.97
2019-03-11T08:11:06.843Z,3.86
2019-03-11T08:13:33.389Z,3.84
2019-03-11T08:16:00.065Z,4.07
2019-03-11T08:18:34.440Z,4.20
2019-03-11T08:20:55.262Z,4.12
2019-03-11T08:23:22.043Z,4.10
2019-03-11T08:25:48.596Z,3.89
2019-03-11T08:28:34.937Z,3.91
2019-03-11T08:31:01.584Z,4.09
2019-03-11T08:33:28.142Z,3.80
2019-03-11T08:35:54.770Z,4.11
2019-03-11T08:38:21.607Z,4.27
2019-03-11T08:40:48.272Z,4.31
2019-03-11T08:43:15.080Z,4.76
2019-03-11T08:45:41.759Z,4.60
2019-03-11T08:48:08.298Z,4.81
2019-03-11T08:50:35.004Z,4.81
2019-03-11T08:53:01.564Z,4.95
2019-03-11T08:55:28.314Z,4.84
2019-03-11T08:57:54.983Z,4.96
2019-03-11T09:00:23.367Z,4.77
2019-03-11T09:02:53.011Z,4.78
2019-03-11T09:05:19.753Z,4.55
2019-03-11T09:07:46.767Z,4.71
2019-03-11T09:10:15.571Z,4.74
2019-03-11T09:12:42.226Z,4.78
2019-03-11T09:15:13.681Z,4.43
2019-03-11T09:17:40.449Z,4.71
2019-03-11T09:20:11.034Z,4.51
2019-03-11T09:22:37.704Z,4.48
2019-03-11T09:25:10.082Z,4.57
2019-03-11T09:27:36.705Z,4.71
2019-03-11T09:30:09.145Z,4.86
2019-03-11T09:32:36.695Z,4.93
2019-03-11T09:35:04.665Z,4.93
2019-03-11T09:37:31.425Z,5.09
2019-03-11T09:40:00.436Z,4.90
2019-03-11T09:42:26.708Z,5.08
2019-03-11T09:44:53.661Z,4.99
2019-03-11T09:47:20.430Z,4.84
2019-03-11T09:49:47.113Z,4.84
2019-03-11T09:52:13.964Z,5.06
2019-03-11T09:54:40.653Z,5.59
2019-03-11T09:57:07.276Z,5.55
2019-03-11T09:59:33.878Z,5.64
2019-03-11T10:02:00.617Z,5.62
2019-03-11T10:04:27.266Z,5.63
2019-03-11T10:06:53.960Z,5.41
2019-03-11T10:09:20.670Z,5.81
2019-03-11T10:11:47.350Z,5.89
2019-03-11T10:14:14.304Z,5.76
2019-03-11T10:16:40.904Z,5.68
2019-03-11T10:19:07.486Z,5.69
2019-03-11T10:21:34.037Z,5.83
2019-03-11T10:24:00.625Z,5.35
2019-03-11T10:26:27.638Z,5.40
2019-03-11T10:28:55.617Z,5.74
2019-03-11T10:31:22.189Z,6.03
2019-03-11T10:33:48.775Z,6.07
2019-03-11T10:37:11.852Z,6.76
2019-03-11T10:39:38.468Z,6.73
2019-03-11T10:42:05.183Z,6.59
2019-03-11T10:44:31.762Z,6.48
2019-03-11T10:46:58.407Z,6.59
2019-03-11T10:49:24.977Z,6.33
2019-03-11T10:51:51.762Z,6.58
2019-03-11T10:54:18.382Z,6.37
2019-03-11T10:56:44.965Z,6.16
2019-03-11T10:59:11.727Z,5.95
2019-03-11T11:01:38.315Z,5.79
2019-03-11T11:05:01.507Z,5.56
2019-03-11T11:07:28.187Z,5.53
2019-03-11T11:09:54.866Z,5.91
2019-03-11T11:12:21.430Z,6.20
2019-03-11T11:14:48.083Z,6.13
2019-03-11T11:17:14.833Z,6.08
2019-03-11T11:19:42.390Z,6.10
2019-03-11T11:22:09.443Z,5.92
2019-03-11T11:24:36.130Z,5.78
2019-03-11T11:27:04.740Z,5.69
2019-03-11T11:29:31.470Z,5.45
2019-03-11T11:31:58.140Z,5.83
2019-03-11T11:34:24.780Z,5.96
2019-03-11T11:36:51.399Z,5.93
2019-03-11T11:39:18.050Z,5.56
2019-03-11T11:41:44.619Z,5.48
2019-03-11T11:44:12.097Z,5.73
2019-03-11T11:46:38.704Z,6.28
2019-03-11T11:49:06.238Z,6.44
2019-03-11T11:51:34.216Z,6.61
2019-03-11T11:54:01.046Z,6.46
2019-03-11T11:56:27.747Z,6.55
2019-03-11T11:58:54.547Z,6.80
2019-03-11T12:01:21.425Z,7.04
2019-03-11T12:03:50.107Z,7.00
2019-03-11T12:06:16.684Z,7.16
2019-03-11T12:08:43.409Z,7.34
2019-03-11T12:11:10.083Z,7.53
2019-03-11T12:13:36.947Z,7.30
2019-03-11T12:16:03.810Z,6.88
2019-03-11T12:18:30.366Z,7.24
2019-03-11T12:20:57.001Z,6.96
2019-03-11T12:23:23.592Z,7.01
2019-03-11T12:25:50.346Z,7.07
2019-03-11T12:28:17.129Z,7.36
2019-03-11T12:30:43.846Z,7.20
2019-03-11T12:33:10.675Z,7.27
2019-03-11T12:35:37.356Z,7.03
2019-03-11T12:38:04.214Z,6.66
2019-03-11T12:40:30.984Z,6.70
2019-03-11T12:42:57.682Z,6.68
2019-03-11T12:45:27.845Z,7.05
2019-03-11T12:47:57.822Z,7.03
2019-03-11T12:50:30.767Z,6.88
2019-03-11T12:52:59.073Z,6.98
2019-03-11T12:55:26.669Z,7.00
2019-03-11T12:57:55.411Z,6.98
2019-03-11T13:00:24.158Z,7.12
2019-03-11T13:02:51.283Z,6.71
2019-03-11T13:05:20.350Z,6.97
2019-03-11T13:07:47.757Z,6.56
2019-03-11T13:10:19.416Z,6.53
2019-03-11T13:12:46.378Z,6.42
2019-03-11T13:15:14.800Z,6.62
2019-03-11T13:17:41.605Z,6.65
2019-03-11T13:20:13.906Z,6.85
2019-03-11T13:22:40.483Z,6.94
2019-03-11T13:25:08.568Z,6.84
2019-03-11T13:27:35.379Z,6.41
2019-03-11T13:30:06.503Z,6.64
2019-03-11T13:32:33.789Z,6.47
2019-03-11T13:35:00.514Z,6.62
2019-03-11T13:37:27.344Z,6.35
2019-03-11T13:39:54.111Z,6.47
2019-03-11T13:42:21.019Z,6.48
2019-03-11T13:44:47.660Z,6.45
2019-03-11T13:47:14.262Z,6.58
2019-03-11T13:49:40.822Z,6.34
2019-03-11T13:52:07.597Z,6.58
2019-03-11T13:54:34.181Z,6.64
2019-03-11T13:57:01.032Z,6.77
2019-03-11T13:59:27.768Z,6.89
2019-03-11T14:01:54.412Z,7.10
2019-03-11T14:04:21.244Z,6.91
2019-03-11T14:06:48.001Z,6.78
2019-03-11T14:09:14.623Z,6.90
2019-03-11T14:11:41.541Z,7.06
2019-03-11T14:14:09.315Z,7.11
2019-03-11T14:16:35.958Z,7.15
2019-03-11T14:19:02.903Z,7.01
2019-03-11T14:21:29.585Z,7.17
2019-03-11T14:23:56.188Z,7.32
2019-03-11T14:26:22.868Z,7.17
2019-03-11T14:28:49.459Z,7.01
2019-03-11T14:31:16.019Z,6.54
2019-03-11T14:33:42.591Z,6.67
2019-03-11T14:36:09.160Z,6.65
2019-03-11T14:38:35.726Z,6.68
2019-03-11T14:41:02.738Z,6.73
2019-03-11T14:43:29.638Z,7.04
2019-03-11T14:45:56.441Z,6.95
2019-03-11T14:48:23.199Z,6.78
2019-03-11T14:50:49.863Z,6.86
2019-03-11T14:53:16.462Z,6.66
2019-03-11T14:55:43.256Z,6.88
2019-03-11T14:58:09.790Z,6.84
2019-03-11T15:00:36.489Z,6.72
2019-03-11T15:03:03.181Z,6.78
2019-03-11T15:05:29.912Z,6.70
2019-03-11T15:07:56.616Z,6.73
2019-03-11T15:10:23.419Z,6.62
2019-03-11T15:12:50.022Z,6.45
2019-03-11T15:15:22.007Z,6.54
2019-03-11T15:17:48.835Z,6.43
2019-03-11T15:20:15.834Z,6.17
2019-03-11T15:22:42.750Z,6.18
2019-03-11T15:25:11.894Z,6.31
2019-03-11T15:27:39.185Z,6.16
2019-03-11T15:30:12.180Z,6.17
2019-03-11T15:32:38.955Z,6.11
2019-03-11T15:35:08.132Z,6.04
2019-03-11T15:37:35.114Z,6.20
2019-03-11T15:40:03.353Z,6.10
2019-03-11T15:42:31.268Z,6.29
2019-03-11T15:44:58.003Z,6.04
2019-03-11T15:47:24.800Z,6.24
2019-03-11T15:49:51.399Z,5.90
2019-03-11T15:52:18.206Z,6.13
2019-03-11T15:54:44.813Z,6.01
2019-03-11T15:57:11.418Z,6.12
2019-03-11T15:59:38.073Z,6.02
2019-03-11T16:02:05.221Z,5.96
2019-03-11T16:04:31.755Z,5.77
2019-03-11T16:06:58.407Z,5.70
2019-03-11T16:09:24.981Z,5.68
2019-03-11T16:11:51.837Z,5.84
2019-03-11T16:14:18.738Z,5.67
2019-03-11T16:16:47.247Z,5.66
2019-03-11T16:19:14.428Z,5.65
2019-03-11T16:21:41.266Z,5.78
2019-03-11T16:24:08.002Z,5.85
2019-03-11T16:26:34.739Z,5.58
2019-03-11T16:29:01.563Z,5.79
2019-03-11T16:31:28.223Z,5.65
2019-03-11T16:34:50.981Z,5.71
2019-03-11T16:37:17.813Z,5.68
2019-03-11T16:39:44.519Z,5.60
2019-03-11T16:42:11.104Z,5.46
2019-03-11T16:44:37.817Z,5.58
2019-03-11T16:47:04.562Z,5.56
2019-03-11T16:49:31.199Z,5.39
2019-03-11T16:51:57.798Z,5.62
2019-03-11T16:54:24.786Z,5.69
2019-03-11T16:56:51.488Z,5.37
2019-03-11T16:59:18.176Z,5.32
2019-03-11T17:01:45.082Z,5.33
2019-03-11T17:04:11.866Z,5.49
2019-03-11T17:06:38.770Z,5.23
2019-03-11T17:09:08.301Z,5.34
2019-03-11T17:11:36.968Z,5.29
2019-03-11T17:14:04.285Z,5.16
2019-03-11T17:16:30.959Z,5.17
2019-03-11T17:18:57.617Z,5.34
2019-03-11T17:21:25.086Z,5.22
2019-03-11T17:23:51.910Z,5.17
2019-03-11T17:26:20.481Z,4.97
2019-03-11T17:28:47.499Z,5.14
2019-03-11T17:31:14.663Z,5.15
2019-03-11T17:33:41.692Z,4.99
2019-03-11T17:36:08.846Z,5.11
2019-03-11T17:38:39.002Z,5.11
2019-03-11T17:41:05.861Z,5.03
2019-03-11T17:43:32.645Z,5.09
2019-03-11T17:45:59.536Z,5.13
2019-03-11T17:48:26.468Z,4.88
2019-03-11T17:50:53.391Z,4.93
2019-03-11T17:53:22.270Z,4.97
2019-03-11T17:55:50.210Z,4.82
2019-03-11T17:58:16.956Z,4.83
2019-03-11T18:00:54.865Z,4.94
2019-03-11T18:03:14.352Z,4.80
2019-03-11T18:05:42.452Z,5.00
2019-03-11T18:08:09.532Z,4.77
2019-03-11T18:10:36.352Z,4.78
2019-03-11T18:13:03.433Z,4.75
2019-03-11T18:15:30.419Z,4.68
2019-03-11T18:17:57.474Z,4.77
2019-03-11T18:20:24.526Z,4.67
2019-03-11T18:22:51.619Z,4.68
2019-03-11T18:25:20.054Z,4.66
2019-03-11T18:27:47.707Z,4.68
2019-03-11T18:30:19.510Z,4.60
2019-03-11T18:32:49.457Z,4.56
2019-03-11T18:35:16.803Z,4.52
2019-03-11T18:37:43.643Z,4.48
2019-03-11T18:40:13.977Z,4.57
2019-03-11T18:42:44.051Z,4.52
2019-03-11T18:45:12.827Z,4.40
2019-03-11T18:47:39.859Z,4.47
2019-03-11T18:50:12.254Z,4.44
2019-03-11T18:52:41.853Z,4.39
2019-03-11T18:55:09.473Z,4.49
2019-03-11T18:57:36.534Z,4.29
2019-03-11T19:00:11.179Z,4.26
2019-03-11T19:02:41.032Z,4.43
2019-03-11T19:05:12.365Z,4.45
2019-03-11T19:07:39.570Z,4.51
2019-03-11T19:10:11.122Z,4.38
2019-03-11T19:12:38.103Z,4.49
2019-03-11T19:15:10.721Z,4.30
2019-03-11T19:17:41.917Z,4.20
2019-03-11T19:20:13.208Z,4.24
2019-03-11T19:22:40.260Z,4.14
2019-03-11T19:25:07.897Z,4.20
2019-03-11T19:27:35.072Z,4.22
2019-03-11T19:30:08.639Z,4.33
2019-03-11T19:32:35.620Z,4.15
2019-03-11T19:35:05.666Z,4.04
2019-03-11T19:37:33.926Z,4.04
2019-03-11T19:40:03.437Z,4.06
2019-03-11T19:42:31.142Z,4.04
2019-03-11T19:44:58.063Z,4.12
2019-03-11T19:47:28.075Z,3.90
2019-03-11T19:49:59.599Z,3.92
2019-03-11T19:52:26.724Z,3.86
2019-03-11T19:54:56.651Z,3.98
2019-03-11T19:57:24.789Z,4.06
2019-03-11T19:59:54.770Z,4.05
2019-03-11T20:02:24.484Z,3.73
2019-03-11T20:04:51.677Z,3.80
2019-03-11T20:07:57.379Z,3.85
2019-03-11T20:10:24.408Z,3.77
2019-03-11T20:12:51.431Z,3.80
2019-03-11T20:15:26.115Z,3.97
2019-03-11T20:17:57.801Z,3.78
2019-03-11T20:20:36.944Z,3.70
2019-03-11T20:23:10.682Z,3.49
2019-03-11T20:25:50.815Z,3.67
2019-03-11T20:28:30.477Z,3.82
2019-03-11T20:31:15.144Z,3.76
2019-03-11T20:34:00.606Z,3.95
2019-03-11T20:36:43.821Z,3.73
2019-03-11T20:39:14.861Z,3.74
2019-03-11T20:41:45.847Z,3.88
2019-03-11T20:44:15.131Z,3.96
2019-03-11T20:46:42.369Z,3.79
2019-03-11T20:49:09.488Z,3.94
2019-03-11T20:51:37.593Z,4.04
2019-03-11T20:54:04.739Z,3.98
2019-03-11T20:56:32.033Z,4.11
2019-03-11T20:58:58.800Z,3.98
2019-03-11T21:01:25.834Z,4.04
2019-03-11T21:03:53.101Z,3.96
2019-03-11T21:06:20.484Z,4.13
2019-03-11T21:08:52.009Z,3.98
2019-03-11T21:11:18.832Z,4.11
2019-03-11T21:14:42.108Z,4.07
2019-03-11T21:17:09.716Z,4.07
2019-03-11T21:19:39.882Z,4.12
2019-03-11T21:22:06.659Z,3.88
2019-03-11T21:25:29.949Z,4.00
2019-03-11T21:27:56.596Z,3.93
2019-03-11T21:30:25.436Z,4.03
2019-03-11T21:32:56.175Z,4.02
2019-03-11T21:35:23.271Z,4.08
2019-03-11T21:37:50.206Z,4.01
2019-03-11T21:40:21.312Z,3.95
2019-03-11T21:42:48.341Z,3.87
2019-03-11T21:45:35.185Z,3.73
2019-03-11T21:48:01.910Z,3.86
2019-03-11T21:50:29.062Z,3.81
2019-03-11T21:52:57.989Z,3.92
2019-03-11T21:55:24.855Z,4.01
2019-03-11T21:57:51.555Z,3.82
2019-03-11T22:00:32.848Z,3.80
2019-03-11T22:02:52.495Z,3.78
2019-03-11T22:05:20.487Z,3.78
2019-03-11T22:07:47.261Z,3.72
2019-03-11T22:10:16.549Z,3.63
2019-03-11T22:12:43.529Z,3.87
2019-03-11T22:15:17.418Z,3.68
2019-03-11T22:17:45.318Z,3.70
2019-03-11T22:20:14.684Z,3.66
2019-03-11T22:22:41.358Z,3.82
2019-03-11T22:25:12.457Z,3.79
2019-03-11T22:27:39.230Z,3.71
2019-03-11T22:30:11.772Z,3.82
2019-03-11T22:32:38.381Z,3.71
2019-03-11T22:35:12.762Z,3.92
2019-03-11T22:37:34.029Z,4.05
2019-03-11T22:40:00.722Z,3.97
2019-03-11T22:42:27.455Z,3.91
2019-03-11T22:44:54.176Z,3.89
2019-03-11T22:47:20.814Z,3.72
2019-03-11T22:49:47.486Z,3.89
2019-03-11T22:52:14.602Z,4.00
2019-03-11T22:54:41.212Z,4.02
2019-03-11T22:57:09.718Z,4.14
2019-03-11T22:59:36.287Z,3.95
2019-03-11T23:02:04.436Z,3.95
2019-03-11T23:04:32.120Z,4.13
2019-03-11T23:06:58.813Z,4.34
2019-03-11T23:09:25.664Z,4.10
2019-03-11T23:11:55.505Z,4.12
2019-03-11T23:14:22.176Z,4.18
2019-03-11T23:16:48.878Z,4.07
2019-03-11T23:19:15.696Z,4.01
2019-03-11T23:21:42.244Z,4.11
2019-03-11T23:24:08.903Z,3.84
2019-03-11T23:26:35.554Z,3.93
2019-03-11T23:29:02.428Z,3.92
2019-03-11T23:31:29.062Z,4.06
2019-03-11T23:33:55.786Z,4.20
2019-03-11T23:36:22.418Z,3.98
2019-03-11T23:38:49.194Z,3.96
2019-03-11T23:41:16.198Z,4.00
2019-03-11T23:43:42.733Z,4.13
2019-03-11T23:46:09.342Z,4.13
2019-03-11T23:48:35.913Z,4.09
2019-03-11T23:51:02.593Z,4.00
2019-03-11T23:53:29.227Z,3.96
2019-03-11T23:55:56.130Z,4.05
2019-03-11T23:58:22.712Z,3.98
